Time;durP1;ratioP1;P1;durP2;ratioP2;P2;SDS_P1;SDS_P2;PMS_P1;PMS_P2;Temp;Humidity;BMP_temperature;BMP_pressure;BME280_temperature;BME280_humidity;BME280_pressure;Samples;Min_cycle;Max_cycle;Signal;HPM_P1;HPM_P2
2023/01/23 00:01:25;;;;;;;35.30;19.02;;;3.50;99.90;;;;;;4998792;28;20185;-79
2023/01/23 00:03:53;;;;;;;39.17;18.42;;;3.50;99.90;;;;;;5000598;28;20182;-78
2023/01/23 00:06:19;;;;;;;32.75;17.48;;;3.30;99.90;;;;;;5000322;28;20255;-78
2023/01/23 00:08:45;;;;;;;30.85;18.40;;;3.20;99.90;;;;;;4997938;28;20712;-78
2023/01/23 00:11:14;;;;;;;36.80;18.65;;;3.20;99.90;;;;;;4979881;28;20201;-79
2023/01/23 00:13:40;;;;;;;36.00;18.88;;;3.10;99.90;;;;;;4996333;28;20166;-79
2023/01/23 00:16:11;;;;;;;43.75;18.92;;;3.10;99.90;;;;;;4997582;28;20652;-77
2023/01/23 00:18:37;;;;;;;36.20;18.63;;;3.50;99.90;;;;;;4996315;28;20224;-77
2023/01/23 00:21:08;;;;;;;36.78;18.70;;;3.40;99.90;;;;;;4995342;28;20189;-77
2023/01/23 00:23:34;;;;;;;37.53;19.02;;;3.40;99.90;;;;;;4995337;28;20326;-78
2023/01/23 00:26:09;;;;;;;37.25;18.73;;;3.40;99.90;;;;;;4995856;28;20633;-77
2023/01/23 00:28:35;;;;;;;39.92;19.27;;;3.40;99.90;;;;;;4978066;28;20521;-77
2023/01/23 00:31:06;;;;;;;42.13;20.70;;;3.40;99.90;;;;;;4978221;28;20193;-77
2023/01/23 00:33:32;;;;;;;34.25;20.13;;;3.60;99.90;;;;;;4995630;28;20177;-78
2023/01/23 00:35:58;;;;;;;38.85;19.63;;;3.30;99.90;;;;;;4995403;28;20630;-78
2023/01/23 00:38:23;;;;;;;42.97;20.25;;;3.50;99.90;;;;;;4996435;28;20176;-79
2023/01/23 00:40:49;;;;;;;41.10;19.83;;;3.70;99.90;;;;;;4995124;28;20657;-78
2023/01/23 00:43:15;;;;;;;42.53;19.95;;;3.50;99.90;;;;;;4995364;28;20615;-77
2023/01/23 00:45:40;;;;;;;42.10;21.30;;;3.20;99.90;;;;;;4995196;28;20634;-77
2023/01/23 00:48:06;;;;;;;52.65;20.88;;;3.30;99.90;;;;;;4995407;28;20165;-78
2023/01/23 00:50:32;;;;;;;44.85;21.77;;;3.30;99.90;;;;;;4994800;28;20201;-78
2023/01/23 00:52:57;;;;;;;45.33;22.15;;;3.40;99.90;;;;;;4994873;28;20256;-80
2023/01/23 00:55:23;;;;;;;46.05;22.55;;;3.70;99.90;;;;;;4995127;28;20165;-78
2023/01/23 00:57:48;;;;;;;40.10;19.90;;;3.60;99.90;;;;;;4995029;28;20173;-78
2023/01/23 01:00:15;;;;;;;63.70;23.05;;;3.80;99.90;;;;;;4994734;28;20227;-78
2023/01/23 01:02:40;;;;;;;46.70;23.90;;;3.80;99.90;;;;;;4994636;28;20239;-78
2023/01/23 01:05:06;;;;;;;50.25;21.17;;;3.70;99.90;;;;;;4994664;28;20201;-77
2023/01/23 01:07:32;;;;;;;53.58;22.55;;;4.00;99.90;;;;;;4995022;28;20647;-78
2023/01/23 01:09:57;;;;;;;55.33;21.88;;;4.10;99.90;;;;;;4995235;28;20245;-78
2023/01/23 01:12:23;;;;;;;48.15;22.67;;;4.10;99.90;;;;;;4995144;28;20185;-78
2023/01/23 01:14:48;;;;;;;45.78;21.23;;;3.90;99.90;;;;;;4995215;28;20208;-78
2023/01/23 01:17:14;;;;;;;49.50;22.77;;;3.70;99.90;;;;;;4994405;28;20177;-78
2023/01/23 01:19:41;;;;;;;48.85;20.25;;;3.60;99.90;;;;;;4994942;28;20236;-78
2023/01/23 01:22:06;;;;;;;48.88;21.25;;;3.50;99.90;;;;;;4995741;28;20200;-78
2023/01/23 01:24:32;;;;;;;44.15;21.50;;;3.40;99.90;;;;;;4995105;28;20630;-78
2023/01/23 01:26:58;;;;;;;43.17;21.15;;;3.50;99.90;;;;;;4978043;28;20177;-78
2023/01/23 01:29:23;;;;;;;44.00;20.55;;;3.50;99.90;;;;;;4997606;28;20193;-78
2023/01/23 01:31:49;;;;;;;35.75;19.58;;;3.50;99.90;;;;;;4999149;28;20185;-78
2023/01/23 01:34:14;;;;;;;46.70;20.85;;;3.60;99.90;;;;;;5001470;28;20184;-77
2023/01/23 01:36:40;;;;;;;45.38;20.50;;;3.30;99.90;;;;;;5008971;28;20645;-78
2023/01/23 01:39:06;;;;;;;34.75;17.27;;;3.30;99.90;;;;;;5005419;28;20192;-77
2023/01/23 01:41:31;;;;;;;41.63;20.73;;;3.50;99.90;;;;;;5005344;28;20149;-78
2023/01/23 01:43:58;;;;;;;40.70;19.48;;;3.40;99.90;;;;;;5006020;28;20177;-78
2023/01/23 01:46:27;;;;;;;41.08;19.05;;;3.60;99.90;;;;;;5001726;28;20165;-78
2023/01/23 01:49:07;;;;;;;40.58;19.88;;;3.40;99.90;;;;;;4976518;28;20180;-77
2023/01/23 01:51:49;;;;;;;48.88;20.13;;;3.60;99.90;;;;;;4993797;28;20188;-79
2023/01/23 01:54:37;;;;;;;38.85;20.88;;;3.50;99.90;;;;;;4993550;28;20169;-79
2023/01/23 01:57:05;;;;;;;50.05;20.35;;;3.60;99.90;;;;;;4994041;28;20230;-78
2023/01/23 01:59:37;;;;;;;46.58;20.58;;;3.60;99.90;;;;;;4993825;28;20193;-78
2023/01/23 02:02:09;;;;;;;44.20;19.08;;;3.60;99.90;;;;;;4993762;28;20732;-78
2023/01/23 02:04:39;;;;;;;42.35;20.83;;;3.60;99.90;;;;;;4994206;28;20172;-78
2023/01/23 02:07:10;;;;;;;38.40;20.00;;;3.60;99.90;;;;;;4993769;28;20173;-78
2023/01/23 02:09:36;;;;;;;45.70;19.73;;;3.60;99.90;;;;;;4993560;28;20272;-78
2023/01/23 02:12:03;;;;;;;43.03;18.48;;;3.70;99.90;;;;;;4993761;28;20684;-78
2023/01/23 02:14:28;;;;;;;46.00;22.15;;;3.80;99.90;;;;;;4993497;28;20180;-77
2023/01/23 02:16:59;;;;;;;43.65;20.13;;;4.00;99.90;;;;;;4993643;28;20173;-78
2023/01/23 02:19:34;;;;;;;44.95;19.80;;;4.00;99.90;;;;;;4993405;28;20195;-78
2023/01/23 02:22:13;;;;;;;48.63;21.88;;;3.80;99.90;;;;;;4992447;28;20216;-78
2023/01/23 02:24:46;;;;;;;39.78;19.70;;;3.50;99.90;;;;;;4993172;28;20661;-78
2023/01/23 02:27:12;;;;;;;45.42;21.85;;;3.30;99.90;;;;;;4992933;28;20621;-78
2023/01/23 02:29:43;;;;;;;39.67;20.13;;;3.30;99.90;;;;;;4993331;28;20268;-78
2023/01/23 02:32:09;;;;;;;47.03;21.15;;;3.30;99.90;;;;;;4993243;28;20265;-79
2023/01/23 02:34:36;;;;;;;52.15;20.48;;;3.40;99.90;;;;;;4993287;28;20196;-78
2023/01/23 02:37:03;;;;;;;49.67;21.13;;;3.60;99.90;;;;;;4993141;28;20188;-78
2023/01/23 02:39:28;;;;;;;46.65;22.55;;;3.70;99.90;;;;;;4993197;28;20185;-79
2023/01/23 02:41:55;;;;;;;45.20;19.85;;;3.50;99.90;;;;;;4991850;28;20204;-78
2023/01/23 02:44:27;;;;;;;42.40;20.15;;;3.40;99.90;;;;;;4992052;28;20224;-79
2023/01/23 02:46:55;;;;;;;45.95;20.77;;;3.30;99.90;;;;;;4991714;28;20268;-78
2023/01/23 02:49:21;;;;;;;49.83;21.38;;;3.40;99.90;;;;;;4992908;28;20189;-78
2023/01/23 02:51:48;;;;;;;50.92;21.40;;;3.40;99.90;;;;;;4975516;28;20192;-78
2023/01/23 02:54:14;;;;;;;44.50;21.67;;;3.40;99.90;;;;;;4993122;28;20173;-78
2023/01/23 02:56:41;;;;;;;43.65;21.48;;;3.40;99.90;;;;;;4991704;28;20711;-78
2023/01/23 03:01:52;;;;;;;49.88;21.90;;;3.60;99.90;;;;;;4993228;28;20243;-78
2023/01/23 03:04:17;;;;;;;55.95;24.17;;;3.80;99.90;;;;;;4994851;28;20177;-78
2023/01/23 03:06:43;;;;;;;60.35;22.45;;;3.60;99.90;;;;;;4997280;28;20173;-78
2023/01/23 03:09:12;;;;;;;54.13;23.25;;;3.60;99.90;;;;;;4997551;28;20736;-78
2023/01/23 03:11:40;;;;;;;58.38;23.25;;;3.60;99.90;;;;;;4979328;28;20660;-78
2023/01/23 03:14:09;;;;;;;48.00;21.55;;;3.50;99.90;;;;;;4979212;28;20942;-78
2023/01/23 03:16:35;;;;;;;61.65;22.77;;;3.70;99.90;;;;;;4996599;28;20184;-80
2023/01/23 03:19:04;;;;;;;51.78;23.52;;;3.90;99.90;;;;;;4996521;28;20662;-79
2023/01/23 03:21:32;;;;;;;59.22;23.20;;;3.80;99.90;;;;;;4996365;28;20507;-78
2023/01/23 03:23:57;;;;;;;58.08;23.63;;;3.70;99.90;;;;;;4995319;28;20192;-78
2023/01/23 03:26:23;;;;;;;60.03;23.73;;;3.80;99.90;;;;;;4996847;28;20169;-78
2023/01/23 03:31:33;;;;;;;48.85;21.33;;;3.50;99.90;;;;;;4996581;28;20386;-78
2023/01/23 03:33:59;;;;;;;52.00;21.55;;;3.60;99.90;;;;;;4996602;28;20305;-78
2023/01/23 03:36:24;;;;;;;49.35;22.38;;;3.60;99.90;;;;;;4996531;28;20172;-78
2023/01/23 03:41:35;;;;;;;51.08;22.02;;;3.80;99.90;;;;;;4996653;28;20172;-78
2023/01/23 03:44:01;;;;;;;53.72;22.50;;;3.80;99.90;;;;;;4994914;28;20236;-77
2023/01/23 03:46:26;;;;;;;52.20;22.92;;;3.80;99.90;;;;;;4996114;28;20571;-78
2023/01/23 03:48:52;;;;;;;52.97;23.40;;;4.00;99.90;;;;;;4994712;28;20172;-77
2023/01/23 03:51:18;;;;;;;50.08;23.20;;;4.00;99.90;;;;;;4995981;28;20185;-77
2023/01/23 03:53:43;;;;;;;51.50;23.10;;;4.20;99.90;;;;;;4996517;28;20215;-78
2023/01/23 03:56:09;;;;;;;58.00;25.17;;;3.80;99.90;;;;;;4994965;28;20644;-77
2023/01/23 03:58:34;;;;;;;50.22;21.92;;;3.80;99.90;;;;;;4996301;28;20655;-77
2023/01/23 04:01:03;;;;;;;52.05;22.10;;;3.70;99.90;;;;;;4996099;28;20185;-77
2023/01/23 04:03:29;;;;;;;49.88;21.60;;;3.90;99.90;;;;;;4995888;28;20208;-77
2023/01/23 04:05:56;;;;;;;56.63;22.17;;;3.80;99.90;;;;;;4995655;28;20181;-77
2023/01/23 04:08:22;;;;;;;64.63;23.13;;;3.60;99.90;;;;;;4995867;28;20178;-77
2023/01/23 04:10:48;;;;;;;57.90;24.25;;;3.70;99.90;;;;;;4995375;28;20188;-79
2023/01/23 04:13:13;;;;;;;58.30;21.48;;;3.90;99.90;;;;;;4995705;28;20224;-77
2023/01/23 04:15:39;;;;;;;57.08;22.83;;;3.90;99.90;;;;;;4994969;28;20212;-78
2023/01/23 04:18:04;;;;;;;48.80;21.52;;;4.00;99.90;;;;;;4995726;28;20173;-77
2023/01/23 04:20:31;;;;;;;51.20;25.58;;;4.00;99.90;;;;;;4994885;28;20216;-78
2023/01/23 04:22:57;;;;;;;47.83;21.98;;;4.10;99.90;;;;;;4995306;28;20296;-77
2023/01/23 04:25:23;;;;;;;56.90;22.77;;;3.80;99.90;;;;;;4995405;28;20233;-77
2023/01/23 04:27:48;;;;;;;49.95;21.08;;;3.70;99.90;;;;;;4977950;28;20177;-78
2023/01/23 04:30:14;;;;;;;59.55;22.67;;;3.70;99.90;;;;;;4995370;28;20550;-77
2023/01/23 04:32:39;;;;;;;50.05;22.63;;;3.60;99.90;;;;;;4995702;28;20169;-77
2023/01/23 04:35:05;;;;;;;52.47;21.40;;;3.60;99.90;;;;;;4995395;28;20166;-79
2023/01/23 04:37:31;;;;;;;56.78;23.80;;;3.60;99.90;;;;;;4977837;28;20181;-77
2023/01/23 04:39:56;;;;;;;56.45;23.02;;;3.80;99.90;;;;;;4995190;28;20189;-77
2023/01/23 04:42:22;;;;;;;54.88;23.67;;;4.00;99.90;;;;;;4995332;28;20240;-77
2023/01/23 04:44:47;;;;;;;51.20;21.80;;;4.10;99.90;;;;;;4994222;28;20161;-78
2023/01/23 04:47:13;;;;;;;53.22;21.27;;;4.10;99.90;;;;;;4995311;28;20196;-78
2023/01/23 04:49:39;;;;;;;59.53;23.60;;;4.10;99.90;;;;;;4994763;28;20196;-78
2023/01/23 04:52:04;;;;;;;49.20;21.20;;;4.10;99.90;;;;;;4993889;28;20192;-79
2023/01/23 04:54:30;;;;;;;54.97;23.00;;;4.10;99.90;;;;;;4994729;28;20576;-78
2023/01/23 04:56:55;;;;;;;56.25;23.85;;;4.00;99.90;;;;;;4994774;28;20169;-77
2023/01/23 04:59:21;;;;;;;63.92;24.80;;;4.10;99.90;;;;;;4994622;28;20223;-78
2023/01/23 05:01:47;;;;;;;49.38;22.50;;;4.20;99.90;;;;;;4994772;28;20173;-77
2023/01/23 05:04:13;;;;;;;46.67;22.20;;;4.00;99.90;;;;;;4994602;28;20177;-78
2023/01/23 05:06:38;;;;;;;53.28;22.10;;;3.80;99.90;;;;;;4994812;28;20188;-78
2023/01/23 05:09:04;;;;;;;46.25;20.60;;;3.90;99.90;;;;;;4994475;28;20264;-78
2023/01/23 05:11:30;;;;;;;52.30;21.50;;;3.80;99.90;;;;;;4976936;28;20166;-78
2023/01/23 05:13:56;;;;;;;46.40;21.60;;;3.70;99.90;;;;;;4976797;28;20574;-77
2023/01/23 05:16:21;;;;;;;50.15;22.92;;;3.80;99.90;;;;;;4994573;28;20173;-77
2023/01/23 05:18:47;;;;;;;47.47;22.10;;;3.90;99.90;;;;;;4994601;28;20648;-77
2023/01/23 05:21:13;;;;;;;48.50;20.60;;;4.20;99.90;;;;;;4994177;28;20182;-77
2023/01/23 05:23:38;;;;;;;53.83;23.33;;;3.90;99.90;;;;;;4994233;28;20565;-77
2023/01/23 05:26:04;;;;;;;48.95;22.17;;;4.10;99.90;;;;;;4994299;28;20169;-77
2023/01/23 05:28:29;;;;;;;55.88;23.42;;;4.00;99.90;;;;;;4994327;28;20614;-78
2023/01/23 05:30:55;;;;;;;61.17;23.20;;;4.10;99.90;;;;;;4994157;28;20217;-77
2023/01/23 05:33:21;;;;;;;56.17;22.58;;;3.80;99.90;;;;;;4993934;28;20196;-77
2023/01/23 05:35:47;;;;;;;56.78;22.90;;;3.40;99.90;;;;;;4976543;28;20161;-77
2023/01/23 05:38:13;;;;;;;52.58;23.65;;;3.50;99.90;;;;;;4993949;28;20220;-77
2023/01/23 05:40:39;;;;;;;52.15;23.05;;;3.40;99.90;;;;;;4993954;28;20204;-78
2023/01/23 05:43:05;;;;;;;51.30;21.20;;;3.60;99.90;;;;;;4993876;28;20665;-77
2023/01/23 05:45:31;;;;;;;57.28;22.67;;;3.80;99.90;;;;;;4976643;28;20260;-77
2023/01/23 05:47:59;;;;;;;52.50;22.00;;;4.00;99.90;;;;;;4976190;28;20681;-77
2023/01/23 05:50:25;;;;;;;64.05;23.73;;;3.90;99.90;;;;;;4993691;28;20204;-78
2023/01/23 05:52:51;;;;;;;47.50;21.27;;;3.80;99.90;;;;;;4993524;28;20169;-77
2023/01/23 05:55:16;;;;;;;56.78;23.73;;;3.70;99.90;;;;;;4976353;28;20173;-77
2023/01/23 05:57:42;;;;;;;51.13;22.08;;;3.60;99.90;;;;;;4993669;28;20542;-77
2023/01/23 06:00:11;;;;;;;55.25;22.73;;;3.80;99.90;;;;;;4993390;28;20653;-77
2023/01/23 06:03:06;;;;;;;45.75;20.98;;;3.60;99.90;;;;;;4975704;28;20205;-78
2023/01/23 06:05:32;;;;;;;58.88;21.75;;;3.50;99.90;;;;;;4975727;28;20180;-77
2023/01/23 06:07:57;;;;;;;68.30;24.02;;;3.70;99.90;;;;;;4975957;28;20173;-77
2023/01/23 06:10:23;;;;;;;57.03;22.95;;;3.80;99.90;;;;;;4993331;28;20216;-77
2023/01/23 06:12:49;;;;;;;52.15;21.73;;;3.70;99.90;;;;;;4993451;28;20179;-77
2023/01/23 06:15:17;;;;;;;54.97;23.17;;;3.80;99.90;;;;;;4993328;28;20173;-77
2023/01/23 06:17:43;;;;;;;64.13;23.08;;;3.70;99.90;;;;;;4992885;28;20165;-77
2023/01/23 06:20:11;;;;;;;64.50;21.52;;;3.50;99.90;;;;;;4993243;28;20204;-77
2023/01/23 06:22:36;;;;;;;61.22;23.20;;;3.70;99.90;;;;;;4993226;28;20259;-77
2023/01/23 06:25:02;;;;;;;67.93;22.63;;;3.60;99.90;;;;;;4993216;28;20538;-77
2023/01/23 06:27:28;;;;;;;56.88;22.02;;;3.60;99.90;;;;;;4993078;28;20169;-78
2023/01/23 06:30:12;;;;;;;64.28;22.23;;;3.70;99.90;;;;;;4992453;28;20839;-80
2023/01/23 06:32:38;;;;;;;63.22;22.17;;;3.50;99.90;;;;;;4992876;28;20181;-77
2023/01/23 06:35:04;;;;;;;51.95;22.00;;;3.70;99.90;;;;;;4993286;28;20176;-78
2023/01/23 06:37:30;;;;;;;59.55;23.73;;;3.70;99.90;;;;;;4975882;28;20276;-77
2023/01/23 06:39:56;;;;;;;55.17;22.42;;;3.80;99.90;;;;;;4992343;28;20256;-80
2023/01/23 06:42:21;;;;;;;51.45;21.25;;;3.90;99.90;;;;;;4992592;28;20255;-77
2023/01/23 06:44:47;;;;;;;60.15;23.23;;;4.00;99.90;;;;;;4992636;28;20633;-79
2023/01/23 06:47:12;;;;;;;57.63;23.38;;;4.00;99.90;;;;;;4992853;28;20177;-77
2023/01/23 06:49:39;;;;;;;46.65;20.80;;;3.90;99.90;;;;;;4992773;28;20197;-78
2023/01/23 06:52:04;;;;;;;55.17;22.23;;;4.10;99.90;;;;;;4992841;28;20223;-79
2023/01/23 06:54:30;;;;;;;49.67;22.17;;;4.10;99.90;;;;;;4992811;28;20185;-78
2023/01/23 06:56:55;;;;;;;55.65;21.25;;;4.10;99.90;;;;;;4993120;28;20311;-81
2023/01/23 06:59:21;;;;;;;53.33;21.33;;;4.10;99.90;;;;;;4975220;28;20641;-79
2023/01/23 07:01:47;;;;;;;51.63;20.30;;;4.40;99.90;;;;;;4991882;28;20208;-79
2023/01/23 07:04:12;;;;;;;58.90;21.98;;;4.40;99.90;;;;;;4992520;28;20255;-78
2023/01/23 07:06:41;;;;;;;58.75;23.65;;;4.20;99.90;;;;;;4992350;28;20180;-78
2023/01/23 07:09:06;;;;;;;59.40;23.15;;;4.40;99.90;;;;;;4992600;28;20165;-79
2023/01/23 07:11:32;;;;;;;47.15;22.08;;;4.20;99.90;;;;;;4991001;28;20219;-78
2023/01/23 07:13:58;;;;;;;62.85;22.60;;;4.40;99.90;;;;;;4974954;28;20177;-78
2023/01/23 07:16:24;;;;;;;60.95;24.40;;;4.30;99.90;;;;;;4992538;28;20170;-78
2023/01/23 07:18:50;;;;;;;57.85;24.08;;;4.30;99.90;;;;;;4992392;28;20625;-78
2023/01/23 07:21:15;;;;;;;57.75;22.95;;;4.30;99.90;;;;;;4992602;28;20165;-78
2023/01/23 07:23:41;;;;;;;53.28;23.05;;;4.10;99.90;;;;;;4975039;28;20267;-78
2023/01/23 07:26:08;;;;;;;47.05;21.33;;;4.10;99.90;;;;;;4992041;28;20199;-79
2023/01/23 07:28:35;;;;;;;64.97;23.98;;;4.30;99.90;;;;;;4986039;28;20184;-82
2023/01/23 07:31:01;;;;;;;63.97;23.30;;;4.20;99.90;;;;;;4973226;28;20288;-78
2023/01/23 07:33:26;;;;;;;55.65;22.80;;;4.10;99.90;;;;;;4989926;28;20271;-82
2023/01/23 07:35:52;;;;;;;62.13;22.70;;;3.90;99.90;;;;;;4973139;28;20172;-79
2023/01/23 07:38:18;;;;;;;48.17;23.20;;;4.10;99.90;;;;;;4991500;28;20184;-79
2023/01/23 07:40:44;;;;;;;58.97;23.90;;;3.90;99.90;;;;;;4991013;28;20197;-81
2023/01/23 07:43:10;;;;;;;54.58;22.42;;;4.00;99.90;;;;;;4991800;28;20733;-80
2023/01/23 07:45:36;;;;;;;53.92;22.90;;;4.00;99.90;;;;;;4973958;28;20272;-81
2023/01/23 07:48:02;;;;;;;53.38;22.35;;;4.10;99.90;;;;;;4992078;28;20264;-78
2023/01/23 07:50:28;;;;;;;55.33;22.10;;;4.00;99.90;;;;;;4992182;28;20678;-80
2023/01/23 07:52:54;;;;;;;57.67;22.67;;;4.00;99.90;;;;;;4995508;28;20227;-78
2023/01/23 07:55:19;;;;;;;67.07;22.65;;;3.90;99.90;;;;;;4995598;28;20161;-78
2023/01/23 07:57:45;;;;;;;56.00;22.48;;;3.90;99.90;;;;;;4995687;28;20177;-78
2023/01/23 08:00:11;;;;;;;47.80;22.65;;;4.10;99.90;;;;;;4995534;28;20189;-81
2023/01/23 08:02:38;;;;;;;50.53;21.70;;;3.90;99.90;;;;;;4995455;28;20204;-82
2023/01/23 08:05:04;;;;;;;57.83;21.42;;;3.90;99.90;;;;;;4978200;28;20172;-77
2023/01/23 08:07:29;;;;;;;58.35;22.25;;;3.90;99.90;;;;;;4977829;28;20177;-77
2023/01/23 08:09:56;;;;;;;55.17;21.90;;;3.80;99.90;;;;;;4997358;28;20245;-80
2023/01/23 08:12:22;;;;;;;62.65;23.23;;;3.80;99.90;;;;;;4994618;28;20224;-79
2023/01/23 08:14:47;;;;;;;62.97;22.65;;;3.70;99.90;;;;;;4995187;28;20538;-79
2023/01/23 08:17:13;;;;;;;41.85;21.38;;;3.70;99.90;;;;;;4994428;28;20161;-79
2023/01/23 08:19:39;;;;;;;61.63;23.77;;;3.80;99.90;;;;;;4993519;28;20197;-80
2023/01/23 08:22:05;;;;;;;67.28;25.73;;;3.60;99.90;;;;;;4993556;28;20618;-79
2023/01/23 08:24:31;;;;;;;57.35;23.50;;;3.80;99.90;;;;;;4975675;28;20179;-79
2023/01/23 08:26:57;;;;;;;51.53;24.08;;;3.80;99.90;;;;;;4993522;28;20649;-79
2023/01/23 08:29:22;;;;;;;52.42;22.70;;;3.70;99.90;;;;;;4993417;28;20693;-79
2023/01/23 08:31:48;;;;;;;66.47;23.92;;;3.80;99.90;;;;;;4972797;28;20250;-78
2023/01/23 08:34:14;;;;;;;54.10;23.35;;;3.90;99.90;;;;;;4993602;28;20227;-78
2023/01/23 08:36:40;;;;;;;54.22;24.58;;;3.70;99.90;;;;;;4991860;28;20173;-79
2023/01/23 08:39:06;;;;;;;56.10;24.95;;;3.70;99.90;;;;;;4994905;28;20169;-79
2023/01/23 08:41:31;;;;;;;67.13;25.75;;;3.80;99.90;;;;;;4994431;28;20676;-78
2023/01/23 08:44:00;;;;;;;62.50;26.23;;;3.90;99.90;;;;;;4994019;28;20303;-78
2023/01/23 08:46:27;;;;;;;59.17;24.08;;;3.70;99.90;;;;;;4994691;28;20169;-78
2023/01/23 08:48:53;;;;;;;57.65;23.55;;;3.70;99.90;;;;;;4981696;28;20177;-79
2023/01/23 08:51:19;;;;;;;53.35;23.55;;;3.80;99.90;;;;;;4994894;28;20662;-77
2023/01/23 08:53:44;;;;;;;55.05;23.92;;;3.80;99.90;;;;;;4995113;28;20169;-78
2023/01/23 08:56:18;;;;;;;49.10;23.23;;;3.90;99.90;;;;;;4994845;28;20178;-79
2023/01/23 08:58:45;;;;;;;58.53;22.90;;;4.00;99.90;;;;;;4994749;28;20176;-78
2023/01/23 09:01:15;;;;;;;62.72;24.77;;;4.30;99.90;;;;;;4994440;28;20192;-78
2023/01/23 09:03:41;;;;;;;52.85;24.27;;;4.40;99.90;;;;;;4994703;28;20667;-78
2023/01/23 09:06:07;;;;;;;57.67;23.15;;;4.60;99.90;;;;;;4994596;28;20252;-78
2023/01/23 09:08:33;;;;;;;47.75;22.05;;;4.50;99.90;;;;;;4995228;28;20184;-78
2023/01/23 09:11:01;;;;;;;57.10;23.17;;;4.50;99.90;;;;;;4994650;28;20182;-78
2023/01/23 09:13:26;;;;;;;57.70;23.75;;;4.40;99.90;;;;;;4995106;28;20180;-78
2023/01/23 09:15:52;;;;;;;57.88;23.75;;;4.40;99.90;;;;;;4994852;28;20161;-78
2023/01/23 09:18:18;;;;;;;58.35;24.27;;;4.30;99.90;;;;;;4994733;28;20173;-77
2023/01/23 09:20:43;;;;;;;53.45;21.77;;;4.50;99.90;;;;;;4994581;28;20198;-79
2023/01/23 09:23:09;;;;;;;55.03;22.13;;;4.40;99.90;;;;;;4994828;28;20213;-80
2023/01/23 09:25:36;;;;;;;57.90;23.70;;;4.30;99.90;;;;;;4994684;28;20227;-80
2023/01/23 09:28:02;;;;;;;47.33;21.42;;;4.40;99.90;;;;;;4994421;28;20581;-79
2023/01/23 09:30:28;;;;;;;52.97;21.10;;;4.60;99.90;;;;;;4994598;28;20287;-86
2023/01/23 09:32:53;;;;;;;56.85;22.00;;;4.50;99.90;;;;;;4993602;28;20169;-79
2023/01/23 09:35:19;;;;;;;46.90;21.05;;;4.40;99.90;;;;;;4976434;28;20166;-78
2023/01/23 09:38:00;;;;;;;42.83;21.35;;;4.50;99.90;;;;;;4994117;28;20205;-79
2023/01/23 09:40:29;;;;;;;49.13;22.38;;;4.60;99.90;;;;;;4994012;28;20680;-78
2023/01/23 09:43:11;;;;;;;50.47;22.38;;;4.30;99.90;;;;;;4994218;28;20279;-78
2023/01/23 09:45:40;;;;;;;52.80;20.80;;;4.30;99.90;;;;;;4993908;28;20173;-77
2023/01/23 09:48:18;;;;;;;51.22;21.33;;;4.50;99.90;;;;;;4993444;28;20680;-77
2023/01/23 09:50:53;;;;;;;56.58;23.48;;;4.40;99.90;;;;;;4993468;28;20247;-78
2023/01/23 09:53:24;;;;;;;48.72;21.40;;;4.30;99.90;;;;;;4993722;28;20172;-77
2023/01/23 09:56:07;;;;;;;45.38;22.15;;;4.40;99.90;;;;;;4993678;28;20165;-78
2023/01/23 09:59:13;;;;;;;49.13;21.88;;;4.60;99.90;;;;;;4993599;28;20227;-76
2023/01/23 10:01:39;;;;;;;50.38;22.77;;;4.70;99.90;;;;;;4933579;29;20183;-76
2023/01/23 10:04:05;;;;;;;49.35;21.55;;;4.50;99.90;;;;;;4983110;28;20312;-76
2023/01/23 10:06:40;;;;;;;48.45;23.40;;;4.50;99.90;;;;;;4993284;28;20184;-76
2023/01/23 10:09:24;;;;;;;49.17;19.83;;;4.40;99.90;;;;;;4993317;28;20192;-79
2023/01/23 10:12:21;;;;;;;54.83;22.90;;;4.40;99.90;;;;;;4993347;28;20192;-77
2023/01/23 10:15:33;;;;;;;48.38;22.00;;;4.50;99.90;;;;;;4992574;28;20176;-77
2023/01/23 10:18:04;;;;;;;48.80;22.65;;;4.70;99.90;;;;;;4960018;28;20224;-76
2023/01/23 10:21:04;;;;;;;47.47;20.65;;;5.00;99.90;;;;;;4993140;28;20199;-75
2023/01/23 10:23:50;;;;;;;48.38;20.77;;;4.80;99.90;;;;;;4993282;28;20252;-77
2023/01/23 10:26:22;;;;;;;40.10;21.02;;;4.80;99.90;;;;;;4975838;28;20173;-78
2023/01/23 10:28:53;;;;;;;54.25;23.30;;;4.80;99.90;;;;;;4993347;28;20243;-75
2023/01/23 10:31:41;;;;;;;45.22;22.73;;;4.90;99.90;;;;;;4993450;28;20173;-76
2023/01/23 10:34:09;;;;;;;57.85;22.83;;;4.70;99.90;;;;;;4993171;28;20642;-75
2023/01/23 10:37:08;;;;;;;40.47;20.75;;;4.50;99.90;;;;;;4992996;28;20169;-79
2023/01/23 10:40:10;;;;;;;46.63;22.08;;;4.60;99.90;;;;;;4992670;28;20189;-75
2023/01/23 10:42:35;;;;;;;44.45;22.92;;;4.60;99.90;;;;;;4983248;28;20292;-75
2023/01/23 10:45:01;;;;;;;56.08;21.80;;;4.50;99.90;;;;;;4992761;28;20185;-76
2023/01/23 10:47:40;;;;;;;40.25;20.75;;;4.50;99.90;;;;;;4992906;28;20614;-77
2023/01/23 10:50:06;;;;;;;46.90;22.15;;;4.50;99.90;;;;;;4992522;28;20195;-77
2023/01/23 10:52:36;;;;;;;39.08;20.70;;;4.70;99.90;;;;;;4992865;28;20169;-76
2023/01/23 10:55:28;;;;;;;38.38;20.75;;;4.90;99.90;;;;;;4992432;28;20589;-77
2023/01/23 10:57:58;;;;;;;47.55;21.52;;;5.00;99.90;;;;;;4992567;28;20618;-77
2023/01/23 11:00:38;;;;;;;41.35;20.05;;;5.20;99.90;;;;;;4991648;28;20236;-77
2023/01/23 11:03:29;;;;;;;40.33;20.15;;;5.20;99.90;;;;;;4975275;28;20211;-77
2023/01/23 11:06:06;;;;;;;37.72;19.23;;;5.20;99.90;;;;;;4992509;28;20169;-77
2023/01/23 11:08:35;;;;;;;44.13;20.17;;;5.10;99.90;;;;;;4992439;28;20204;-77
2023/01/23 11:11:21;;;;;;;40.22;21.10;;;5.20;99.90;;;;;;4992317;28;20236;-77
2023/01/23 11:14:00;;;;;;;40.67;20.20;;;5.10;99.90;;;;;;4991691;28;20263;-78
2023/01/23 11:16:26;;;;;;;39.80;20.50;;;5.20;99.90;;;;;;4975085;28;20180;-76
2023/01/23 11:18:55;;;;;;;43.05;22.20;;;5.10;99.90;;;;;;4992181;28;20537;-75
2023/01/23 11:21:57;;;;;;;43.22;20.17;;;5.10;99.90;;;;;;4993224;28;20276;-79
2023/01/23 11:24:35;;;;;;;45.22;20.80;;;5.30;99.90;;;;;;4993190;28;20183;-87
2023/01/23 11:27:05;;;;;;;35.85;19.15;;;5.50;99.90;;;;;;4979871;28;20276;-84
2023/01/23 11:30:00;;;;;;;38.40;19.27;;;5.60;99.90;;;;;;4979901;28;20189;-79
2023/01/23 11:32:28;;;;;;;38.35;20.08;;;5.50;99.90;;;;;;4997584;28;20584;-87
2023/01/23 11:35:17;;;;;;;40.03;20.58;;;5.40;99.90;;;;;;4997382;28;20244;-87
2023/01/23 11:37:42;;;;;;;41.55;20.92;;;5.10;99.90;;;;;;4997054;28;20556;-88
2023/01/23 11:40:19;;;;;;;42.55;20.45;;;5.30;99.90;;;;;;4997306;28;20193;-80
2023/01/23 11:42:45;;;;;;;37.10;17.92;;;5.30;99.90;;;;;;4997331;28;20236;-77
2023/01/23 11:45:36;;;;;;;42.33;22.83;;;5.30;99.90;;;;;;4996198;28;20207;-78
2023/01/23 11:48:50;;;;;;;53.35;20.55;;;5.20;99.90;;;;;;4994932;28;20231;-77
2023/01/23 11:51:35;;;;;;;46.50;22.30;;;5.20;99.90;;;;;;4989391;28;20232;-76
2023/01/23 11:54:27;;;;;;;43.97;21.08;;;5.40;99.90;;;;;;4995844;28;20173;-77
2023/01/23 11:57:25;;;;;;;56.28;23.25;;;5.30;99.90;;;;;;4996619;28;20172;-77
2023/01/23 12:00:15;;;;;;;47.17;21.13;;;5.20;99.90;;;;;;4978390;28;20220;-79
2023/01/23 12:02:49;;;;;;;40.38;20.45;;;5.30;99.90;;;;;;4978304;28;20224;-77
2023/01/23 12:05:33;;;;;;;41.17;20.70;;;5.40;99.90;;;;;;4996141;28;20582;-77
2023/01/23 12:08:24;;;;;;;39.95;20.48;;;5.40;99.90;;;;;;4996025;28;20185;-78
2023/01/23 12:11:25;;;;;;;36.80;20.92;;;5.40;99.90;;;;;;4996211;28;20243;-81
2023/01/23 12:14:29;;;;;;;44.00;19.90;;;5.30;99.90;;;;;;4995646;28;20170;-77
2023/01/23 12:17:22;;;;;;;41.15;20.50;;;5.00;99.90;;;;;;4995072;28;20185;-77
2023/01/23 12:20:25;;;;;;;41.97;19.10;;;5.10;99.90;;;;;;4995564;28;20642;-77
2023/01/23 12:23:08;;;;;;;40.67;20.30;;;5.10;99.90;;;;;;4995266;28;20868;-77
2023/01/23 12:25:39;;;;;;;44.92;20.60;;;5.00;99.90;;;;;;4995707;28;20175;-77
2023/01/23 12:28:12;;;;;;;39.88;20.15;;;5.20;99.90;;;;;;4977791;28;20173;-80
2023/01/23 12:30:57;;;;;;;38.03;20.58;;;5.50;99.90;;;;;;4995408;28;20634;-77
2023/01/23 12:33:45;;;;;;;44.97;22.30;;;5.30;99.90;;;;;;4995557;28;20251;-77
2023/01/23 12:36:26;;;;;;;35.42;18.88;;;5.30;99.90;;;;;;4994658;28;20688;-77
2023/01/23 12:39:12;;;;;;;38.38;18.25;;;5.30;99.90;;;;;;4995256;28;20534;-77
2023/01/23 12:41:38;;;;;;;37.85;18.35;;;5.30;99.90;;;;;;4995240;28;20169;-77
2023/01/23 12:44:28;;;;;;;46.95;20.50;;;5.40;99.90;;;;;;4994874;28;20568;-77
2023/01/23 12:46:59;;;;;;;38.90;19.35;;;5.40;99.90;;;;;;4992433;28;20170;-87
2023/01/23 12:49:28;;;;;;;42.45;19.80;;;5.50;99.90;;;;;;4994197;28;20196;-78
2023/01/23 12:52:05;;;;;;;41.65;19.60;;;5.60;99.90;;;;;;4994703;28;20200;-79
2023/01/23 12:54:47;;;;;;;40.88;19.17;;;5.50;99.90;;;;;;4994903;28;20625;-82
2023/01/23 12:57:38;;;;;;;42.30;21.00;;;5.70;99.90;;;;;;4995130;28;20173;-77
2023/01/23 13:00:24;;;;;;;40.42;18.73;;;5.60;99.90;;;;;;4994693;28;20205;-77